createdAt,value
2023-04-16T00:00:04.692Z,100483.53
2023-04-16T00:02:39.152Z,100484.38
2023-04-16T00:05:07.683Z,100478.53
2023-04-16T00:07:35.366Z,100475.03
2023-04-16T00:10:03.200Z,100483.78
2023-04-16T00:12:30.959Z,100473.38
2023-04-16T00:14:59.005Z,100481.97
2023-04-16T00:17:26.735Z,100470.63
2023-04-16T00:19:54.443Z,100484.53
2023-04-16T00:22:22.158Z,100483.84
2023-04-16T00:24:49.866Z,100479.47
2023-04-16T00:27:20.328Z,100489.00
2023-04-16T00:29:48.666Z,100476.59
2023-04-16T00:32:16.885Z,100474.81
2023-04-16T00:34:44.702Z,100476.78
2023-04-16T00:37:12.431Z,100488.34
2023-04-16T00:39:40.312Z,100487.47
2023-04-16T00:42:08.063Z,100479.50
2023-04-16T00:44:36.363Z,100489.13
2023-04-16T00:47:06.218Z,100487.31
2023-04-16T00:49:34.842Z,100492.66
2023-04-16T00:52:03.363Z,100492.66
2023-04-16T00:54:32.964Z,100479.31
2023-04-16T00:57:01.544Z,100494.94
2023-04-16T00:59:30.037Z,100478.38
2023-04-16T01:01:57.856Z,100482.53
2023-04-16T01:04:26.325Z,100494.88
2023-04-16T01:06:54.531Z,100498.47
2023-04-16T01:09:22.180Z,100489.00
2023-04-16T01:11:49.852Z,100497.81
2023-04-16T01:14:17.518Z,100496.94
2023-04-16T01:16:45.257Z,100499.59
2023-04-16T01:19:12.928Z,100497.72
2023-04-16T01:21:40.752Z,100492.53
2023-04-16T01:24:08.812Z,100501.53
2023-04-16T01:26:36.532Z,100492.06
2023-04-16T01:29:04.166Z,100495.69
2023-04-16T01:31:31.942Z,100492.06
2023-04-16T01:34:05.477Z,100493.03
2023-04-16T01:36:33.684Z,100490.53
2023-04-16T01:39:01.336Z,100494.13
2023-04-16T01:41:28.908Z,100504.91
2023-04-16T01:43:56.499Z,100507.66
2023-04-16T01:46:29.222Z,100510.41
2023-04-16T01:48:58.106Z,100503.72
2023-04-16T01:51:25.884Z,100510.66
2023-04-16T01:53:53.883Z,100516.94
2023-04-16T01:56:21.528Z,100506.47
2023-04-16T01:58:49.208Z,100507.31
2023-04-16T02:01:19.065Z,100511.47
2023-04-16T02:03:48.327Z,100509.84
2023-04-16T02:06:16.448Z,100513.44
2023-04-16T02:08:44.687Z,100509.13
2023-04-16T02:11:12.283Z,100518.53
2023-04-16T02:13:40.377Z,100509.63
2023-04-16T02:16:08.869Z,100515.84
2023-04-16T02:18:43.863Z,100510.78
2023-04-16T02:21:13.941Z,100518.53
2023-04-16T02:23:42.150Z,100514.94
2023-04-16T02:26:10.464Z,100518.53
2023-04-16T02:28:39.169Z,100517.72
2023-04-16T02:31:08.007Z,100522.03
2023-04-16T02:33:41.558Z,100522.03
2023-04-16T02:36:11.097Z,100526.59
2023-04-16T02:38:38.740Z,100526.59
2023-04-16T02:41:08.827Z,100516.19
2023-04-16T02:43:36.705Z,100531.94
2023-04-16T02:46:05.413Z,100535.53
2023-04-16T02:48:33.282Z,100535.59
2023-04-16T02:51:01.114Z,100533.75
2023-04-16T02:53:28.801Z,100533.91
2023-04-16T02:55:56.548Z,100535.41
2023-04-16T02:58:26.367Z,100530.13
2023-04-16T03:00:55.798Z,100547.50
2023-04-16T03:03:23.608Z,100543.72
2023-04-16T03:05:51.285Z,100547.19
2023-04-16T03:08:19.376Z,100539.25
2023-04-16T03:10:46.986Z,100539.94
2023-04-16T03:13:15.763Z,100530.28
2023-04-16T03:15:50.040Z,100546.97
2023-04-16T03:18:17.943Z,100533.19
2023-04-16T03:20:45.741Z,100531.34
2023-04-16T03:23:13.458Z,100538.28
2023-04-16T03:25:41.169Z,100545.16
2023-04-16T03:28:10.358Z,100554.81
2023-04-16T03:30:38.990Z,100557.56
2023-04-16T03:33:07.374Z,100554.91
2023-04-16T03:35:35.765Z,100552.16
2023-04-16T03:38:04.081Z,100553.84
2023-04-16T03:40:32.112Z,100564.53
2023-04-16T03:43:00.827Z,100557.50
2023-04-16T03:45:29.500Z,100546.13
2023-04-16T03:47:57.524Z,100566.31
2023-04-16T03:50:26.820Z,100561.72
2023-04-16T03:52:54.813Z,100567.91
2023-04-16T03:55:22.498Z,100561.69
2023-04-16T03:57:50.197Z,100556.44
2023-04-16T04:00:18.202Z,100560.81
2023-04-16T04:02:59.156Z,100555.50
2023-04-16T04:05:27.036Z,100555.47
2023-04-16T04:07:54.765Z,100555.50
2023-04-16T04:10:22.610Z,100553.72
2023-04-16T04:12:50.409Z,100560.91
2023-04-16T04:15:18.360Z,100548.72
2023-04-16T04:17:46.216Z,100561.28
2023-04-16T04:20:14.111Z,100568.31
2023-04-16T04:22:45.132Z,100566.53
2023-04-16T04:25:13.274Z,100564.81
2023-04-16T04:27:41.034Z,100569.16
2023-04-16T04:30:10.017Z,100578.97
2023-04-16T04:32:38.765Z,100572.69
2023-04-16T04:35:07.130Z,100585.09
2023-04-16T04:37:34.975Z,100582.50
2023-04-16T04:40:11.717Z,100572.75
2023-04-16T04:42:39.497Z,100594.91
2023-04-16T04:45:08.315Z,100590.63
2023-04-16T04:47:36.556Z,100588.34
2023-04-16T04:50:06.787Z,100604.88
2023-04-16T04:52:34.950Z,100611.34
2023-04-16T04:55:03.760Z,100598.78
2023-04-16T04:57:31.565Z,100601.66
2023-04-16T04:59:59.603Z,100609.59
2023-04-16T05:02:31.129Z,100605.19
2023-04-16T05:04:59.215Z,100600.09
2023-04-16T05:07:29.198Z,100620.28
2023-04-16T05:09:56.816Z,100619.38
2023-04-16T05:12:24.743Z,100613.13
2023-04-16T05:14:52.568Z,100603.41
2023-04-16T05:17:20.236Z,100614.78
2023-04-16T05:19:48.004Z,100625.22
2023-04-16T05:22:18.849Z,100630.56
2023-04-16T05:24:46.662Z,100635.03
2023-04-16T05:27:14.943Z,100636.84
2023-04-16T05:29:42.615Z,100634.31
2023-04-16T05:32:10.754Z,100635.97
2023-04-16T05:34:38.525Z,100634.34
2023-04-16T05:37:06.257Z,100639.66
2023-04-16T05:39:34.204Z,100641.53
2023-04-16T05:42:02.034Z,100636.25
2023-04-16T05:44:29.895Z,100649.59
2023-04-16T05:46:57.584Z,100648.75
2023-04-16T05:49:26.533Z,100648.72
2023-04-16T05:51:54.295Z,100657.38
2023-04-16T05:54:22.078Z,100652.97
2023-04-16T05:56:49.745Z,100665.38
2023-04-16T05:59:17.568Z,100646.00
2023-04-16T06:01:45.295Z,100668.75
2023-04-16T06:04:13.230Z,100664.13
2023-04-16T06:06:41.050Z,100666.00
2023-04-16T06:09:12.462Z,100657.94
2023-04-16T06:11:40.253Z,100668.41
2023-04-16T06:14:07.991Z,100648.88
2023-04-16T06:16:35.748Z,100662.13
2023-04-16T06:19:03.502Z,100669.03
2023-04-16T06:21:31.749Z,100658.34
2023-04-16T06:23:59.562Z,100666.25
2023-04-16T06:26:27.289Z,100667.13
2023-04-16T06:28:54.983Z,100668.78
2023-04-16T06:31:22.691Z,100659.91
2023-04-16T06:33:50.420Z,100682.94
2023-04-16T06:36:18.220Z,100669.59
2023-04-16T06:38:46.393Z,100670.31
2023-04-16T06:41:16.881Z,100672.53
2023-04-16T06:43:44.879Z,100682.28
2023-04-16T06:46:12.582Z,100681.31
2023-04-16T06:48:40.319Z,100675.06
2023-04-16T06:51:08.260Z,100673.09
2023-04-16T06:53:37.792Z,100681.69
2023-04-16T06:56:06.776Z,100693.03
2023-04-16T06:58:34.465Z,100688.72
2023-04-16T07:01:02.696Z,100692.25
2023-04-16T07:03:31.314Z,100694.78
2023-04-16T07:05:59.059Z,100693.69
2023-04-16T07:08:26.821Z,100698.03
2023-04-16T07:10:54.892Z,100690.94
2023-04-16T07:13:22.662Z,100698.09
2023-04-16T07:15:50.367Z,100695.59
2023-04-16T07:18:19.287Z,100690.53
2023-04-16T07:20:48.677Z,100693.13
2023-04-16T07:23:16.402Z,100693.91
2023-04-16T07:25:44.614Z,100700.78
2023-04-16T07:28:12.875Z,100707.72
2023-04-16T07:30:40.556Z,100700.50
2023-04-16T07:33:08.269Z,100696.84
2023-04-16T07:35:36.445Z,100708.41
2023-04-16T07:38:04.136Z,100710.19
2023-04-16T07:40:33.303Z,100703.75
2023-04-16T07:43:01.176Z,100707.13
2023-04-16T07:45:29.232Z,100710.28
2023-04-16T07:47:57.001Z,100700.97
2023-04-16T07:50:25.419Z,100710.34
2023-04-16T07:52:53.513Z,100712.09
2023-04-16T07:55:22.760Z,100718.31
2023-04-16T07:57:50.661Z,100714.69
2023-04-16T08:00:18.362Z,100728.88
2023-04-16T08:02:46.484Z,100730.59
2023-04-16T08:05:14.314Z,100723.34
2023-04-16T08:07:42.243Z,100713.56
2023-04-16T08:10:10.078Z,100734.44
2023-04-16T08:12:38.851Z,100732.72
2023-04-16T08:15:07.553Z,100728.41
2023-04-16T08:17:37.622Z,100739.31
2023-04-16T08:20:06.966Z,100741.97
2023-04-16T08:22:34.774Z,100742.66
2023-04-16T08:25:04.356Z,100746.06
2023-04-16T08:27:32.117Z,100741.84
2023-04-16T08:29:59.869Z,100755.81
2023-04-16T08:32:29.807Z,100748.75
2023-04-16T08:34:57.991Z,100761.97
2023-04-16T08:37:26.593Z,100769.94
2023-04-16T08:39:54.342Z,100754.97
2023-04-16T08:42:40.608Z,100759.19
2023-04-16T08:45:17.162Z,100761.84
2023-04-16T08:47:51.087Z,100759.97
2023-04-16T08:50:24.330Z,100775.91
2023-04-16T08:53:00.485Z,100768.63
2023-04-16T08:55:41.263Z,100770.75
2023-04-16T08:58:15.061Z,100781.44
2023-04-16T09:00:44.094Z,100778.88
2023-04-16T09:03:13.371Z,100776.34
2023-04-16T09:05:43.886Z,100780.84
2023-04-16T09:08:12.458Z,100784.44
2023-04-16T09:10:40.332Z,100781.63
2023-04-16T09:13:11.606Z,100772.84
2023-04-16T09:15:45.251Z,100781.44
2023-04-16T09:18:13.037Z,100788.50
2023-04-16T09:20:46.865Z,100785.91
2023-04-16T09:23:14.568Z,100785.13
2023-04-16T09:25:46.645Z,100795.66
2023-04-16T09:28:48.776Z,100798.41
2023-04-16T09:31:18.638Z,100794.72
2023-04-16T09:34:09.125Z,100793.00
2023-04-16T09:36:37.402Z,100804.44
2023-04-16T09:39:07.361Z,100794.81
2023-04-16T09:41:39.885Z,100799.88
2023-04-16T09:44:07.689Z,100798.09
2023-04-16T09:46:40.547Z,100799.09
2023-04-16T09:49:18.044Z,100801.69
2023-04-16T09:51:50.898Z,100798.41
2023-04-16T09:54:20.370Z,100809.78
2023-04-16T09:56:48.058Z,100808.25
2023-04-16T09:59:26.643Z,100804.81
2023-04-16T10:02:15.226Z,100811.91
2023-04-16T10:04:54.004Z,100815.63
2023-04-16T10:07:22.507Z,100817.41
2023-04-16T10:09:52.450Z,100811.19
2023-04-16T10:12:22.747Z,100817.44
2023-04-16T10:14:50.745Z,100818.50
2023-04-16T10:17:21.162Z,100828.19
2023-04-16T10:19:49.499Z,100835.44
2023-04-16T10:22:17.392Z,100834.59
2023-04-16T10:24:46.929Z,100825.13
2023-04-16T10:27:17.218Z,100830.56
2023-04-16T10:29:45.891Z,100828.81
2023-04-16T10:32:14.249Z,100836.66
2023-04-16T10:34:42.482Z,100837.88
2023-04-16T10:37:10.242Z,100844.03
2023-04-16T10:39:40.540Z,100844.97
2023-04-16T10:42:13.298Z,100847.72
2023-04-16T10:44:45.049Z,100845.03
2023-04-16T10:47:14.366Z,100849.44
2023-04-16T10:49:43.570Z,100842.38
2023-04-16T10:52:20.145Z,100846.94
2023-04-16T10:54:50.023Z,100848.94
2023-04-16T10:57:20.494Z,100845.31
2023-04-16T10:59:49.695Z,100851.56
2023-04-16T11:02:18.811Z,100844.56
2023-04-16T11:04:49.655Z,100846.34
2023-04-16T11:07:19.803Z,100841.13
2023-04-16T11:10:00.475Z,100846.47
2023-04-16T11:12:46.323Z,100852.94
2023-04-16T11:15:17.050Z,100839.91
2023-04-16T11:17:45.634Z,100856.03
2023-04-16T11:20:20.938Z,100857.75
2023-04-16T11:22:50.588Z,100850.78
2023-04-16T11:25:30.046Z,100840.38
2023-04-16T11:28:01.531Z,100858.28
2023-04-16T11:30:38.881Z,100849.28
2023-04-16T11:33:11.620Z,100846.66
2023-04-16T11:35:41.264Z,100848.28
2023-04-16T11:38:08.991Z,100860.94
2023-04-16T11:40:36.702Z,100853.94
2023-04-16T11:43:14.842Z,100852.06
2023-04-16T11:46:13.226Z,100855.78
2023-04-16T11:48:53.268Z,100862.91
2023-04-16T11:51:23.827Z,100841.78
2023-04-16T11:53:56.118Z,100836.44
2023-04-16T11:56:33.210Z,100858.34
2023-04-16T11:59:11.238Z,100854.81
2023-04-16T12:01:41.638Z,100857.47
2023-04-16T12:04:10.225Z,100858.28
2023-04-16T12:06:38.359Z,100857.16
2023-04-16T12:09:27.158Z,100856.88
2023-04-16T12:11:57.018Z,100856.19
2023-04-16T12:14:24.702Z,100857.81
2023-04-16T12:16:52.980Z,100858.56
2023-04-16T12:19:21.482Z,100860.44
2023-04-16T12:21:51.029Z,100852.47
2023-04-16T12:24:26.776Z,100854.38
2023-04-16T12:27:03.108Z,100857.94
2023-04-16T12:29:31.952Z,100857.09
2023-04-16T12:31:59.847Z,100853.44
2023-04-16T12:34:51.576Z,100855.34
2023-04-16T12:37:21.324Z,100859.72
2023-04-16T12:39:49.054Z,100858.91
2023-04-16T12:42:16.879Z,100859.50
2023-04-16T12:44:44.749Z,100854.94
2023-04-16T12:47:12.496Z,100863.78
2023-04-16T12:49:40.193Z,100862.94
2023-04-16T12:52:14.441Z,100861.88
2023-04-16T12:54:44.508Z,100860.78
2023-04-16T12:57:12.547Z,100860.59
2023-04-16T12:59:40.302Z,100870.31
2023-04-16T13:02:10.466Z,100864.00
2023-04-16T13:04:40.348Z,100863.16
2023-04-16T13:07:09.897Z,100861.19
2023-04-16T13:09:39.646Z,100864.69
2023-04-16T13:12:07.871Z,100856.84
2023-04-16T13:14:35.938Z,100864.78
2023-04-16T13:17:06.356Z,100873.75
2023-04-16T13:19:37.441Z,100863.94
2023-04-16T13:22:05.208Z,100863.75
2023-04-16T13:24:34.565Z,100856.59
2023-04-16T13:27:02.312Z,100864.53
2023-04-16T13:29:30.210Z,100861.75
2023-04-16T13:31:58.276Z,100854.78
2023-04-16T13:34:25.984Z,100867.09
2023-04-16T13:36:54.390Z,100849.59
2023-04-16T13:39:22.325Z,100857.53
2023-04-16T13:41:52.058Z,100860.13
2023-04-16T13:44:19.814Z,100860.91
2023-04-16T13:46:47.883Z,100874.19
2023-04-16T13:49:36.252Z,100862.44
2023-04-16T13:52:37.009Z,100858.28
2023-04-16T13:55:05.239Z,100865.22
2023-04-16T13:57:33.687Z,100866.13
2023-04-16T14:00:02.326Z,100862.56
2023-04-16T14:02:32.771Z,100862.53
2023-04-16T14:05:03.168Z,100863.22
2023-04-16T14:07:32.523Z,100865.81
2023-04-16T14:10:00.432Z,100851.56
2023-04-16T14:12:28.295Z,100871.91
2023-04-16T14:14:56.414Z,100859.34
2023-04-16T14:17:24.214Z,100863.75
2023-04-16T14:19:52.992Z,100861.03
2023-04-16T14:22:20.809Z,100851.22
2023-04-16T14:24:48.478Z,100863.63
2023-04-16T14:27:16.987Z,100865.34
2023-04-16T14:29:46.492Z,100861.72
2023-04-16T14:32:14.490Z,100867.00
2023-04-16T14:34:42.314Z,100865.13
2023-04-16T14:37:10.780Z,100856.41
2023-04-16T14:39:39.259Z,100860.91
2023-04-16T14:42:07.147Z,100861.09
2023-04-16T14:44:34.896Z,100862.84
2023-04-16T14:47:02.946Z,100859.31
2023-04-16T14:49:30.921Z,100860.16
2023-04-16T14:51:59.512Z,100864.50
2023-04-16T14:54:28.113Z,100860.91
2023-04-16T14:56:56.688Z,100872.34
2023-04-16T14:59:24.485Z,100867.00
2023-04-16T15:01:58.859Z,100868.81
2023-04-16T15:04:26.822Z,100866.19
2023-04-16T15:06:58.747Z,100868.06
2023-04-16T15:09:27.528Z,100866.25
2023-04-16T15:11:55.364Z,100861.72
2023-04-16T15:14:23.117Z,100865.13
2023-04-16T15:16:52.300Z,100873.03
2023-04-16T15:19:20.202Z,100870.28
2023-04-16T15:21:48.934Z,100872.78
2023-04-16T15:24:16.688Z,100865.75
2023-04-16T15:26:45.390Z,100866.53
2023-04-16T15:29:14.022Z,100868.25
2023-04-16T15:31:41.867Z,100870.94
2023-04-16T15:34:09.803Z,100874.28
2023-04-16T15:36:37.772Z,100875.06
2023-04-16T15:39:05.516Z,100872.38
2023-04-16T15:41:37.124Z,100880.31
2023-04-16T15:44:06.266Z,100884.72
2023-04-16T15:46:34.130Z,100876.09
2023-04-16T15:49:02.243Z,100883.97
2023-04-16T15:51:31.574Z,100884.84
2023-04-16T15:53:59.249Z,100887.50
2023-04-16T15:56:27.284Z,100883.25
2023-04-16T15:58:56.246Z,100886.78
2023-04-16T16:01:24.890Z,100880.44
2023-04-16T16:03:52.854Z,100887.41
2023-04-16T16:06:21.036Z,100885.50
2023-04-16T16:08:50.106Z,100885.50
2023-04-16T16:11:17.873Z,100880.31
2023-04-16T16:13:45.776Z,100895.44
2023-04-16T16:16:13.471Z,100880.31
2023-04-16T16:18:42.132Z,100889.19
2023-04-16T16:21:11.166Z,100894.63
2023-04-16T16:23:38.887Z,100885.91
2023-04-16T16:26:07.073Z,100897.41
2023-04-16T16:28:37.734Z,100896.53
2023-04-16T16:31:07.093Z,100894.75
2023-04-16T16:33:36.879Z,100891.28
2023-04-16T16:36:09.405Z,100894.81
2023-04-16T16:38:37.310Z,100895.53
2023-04-16T16:41:04.892Z,100881.06
2023-04-16T16:43:33.182Z,100876.38
2023-04-16T16:46:00.876Z,100884.22
2023-04-16T16:48:29.276Z,100889.50
2023-04-16T16:50:58.299Z,100890.53
2023-04-16T16:53:26.180Z,100889.56
2023-04-16T16:55:54.025Z,100897.59
2023-04-16T16:58:21.979Z,100882.75
2023-04-16T17:00:49.760Z,100891.38
2023-04-16T17:03:17.904Z,100899.41
2023-04-16T17:05:45.944Z,100900.38
2023-04-16T17:08:13.949Z,100899.53
2023-04-16T17:10:43.490Z,100902.25
2023-04-16T17:13:13.616Z,100907.53
2023-04-16T17:15:42.005Z,100899.66
2023-04-16T17:18:09.808Z,100913.75
2023-04-16T17:20:37.940Z,100908.47
2023-04-16T17:23:07.806Z,100917.25
2023-04-16T17:25:35.990Z,100910.03
2023-04-16T17:28:03.973Z,100898.63
2023-04-16T17:30:32.026Z,100910.19
2023-04-16T17:32:59.827Z,100905.88
2023-04-16T17:35:27.899Z,100910.47
2023-04-16T17:37:55.799Z,100912.22
2023-04-16T17:40:23.563Z,100907.00
2023-04-16T17:42:51.542Z,100907.72
2023-04-16T17:45:19.412Z,100907.72
2023-04-16T17:47:47.141Z,100922.91
2023-04-16T17:50:17.050Z,100922.03
2023-04-16T17:52:44.873Z,100924.78
2023-04-16T17:55:12.645Z,100930.19
2023-04-16T17:57:40.959Z,100935.53
2023-04-16T18:00:12.493Z,100934.66
2023-04-16T18:02:43.818Z,100935.38
2023-04-16T18:05:11.663Z,100939.63
2023-04-16T18:07:41.135Z,100931.34
2023-04-16T18:10:09.787Z,100933.91
2023-04-16T18:12:37.616Z,100943.78
2023-04-16T18:15:07.127Z,100935.91
2023-04-16T18:17:35.134Z,100937.75
2023-04-16T18:20:05.349Z,100950.84
2023-04-16T18:22:33.131Z,100949.03
2023-04-16T18:25:01.126Z,100948.09
2023-04-16T18:29:56.926Z,100945.56
2023-04-16T18:32:24.745Z,100951.06
2023-04-16T18:34:52.546Z,100951.00
2023-04-16T18:37:20.650Z,100949.81
2023-04-16T18:39:48.651Z,100954.25
2023-04-16T18:42:16.370Z,100951.53
2023-04-16T18:44:44.148Z,100956.00
2023-04-16T18:47:11.847Z,100954.31
2023-04-16T18:49:39.565Z,100952.56
2023-04-16T18:52:07.262Z,100964.81
2023-04-16T18:54:34.961Z,100959.53
2023-04-16T18:57:04.002Z,100963.16
2023-04-16T18:59:31.663Z,100962.28
2023-04-16T19:01:59.890Z,100965.81
2023-04-16T19:04:27.745Z,100968.50
2023-04-16T19:06:55.826Z,100966.56
2023-04-16T19:09:26.408Z,100967.56
2023-04-16T19:11:55.995Z,100974.59
2023-04-16T19:14:23.825Z,100973.72
2023-04-16T19:16:51.491Z,100974.66
2023-04-16T19:19:19.219Z,100970.25
2023-04-16T19:21:46.920Z,100974.91
2023-04-16T19:24:14.867Z,100973.84
2023-04-16T19:26:45.038Z,100976.81
2023-04-16T19:29:13.138Z,100971.38
2023-04-16T19:31:40.960Z,100985.53
2023-04-16T19:34:10.863Z,100982.09
2023-04-16T19:36:38.708Z,100986.41
2023-04-16T19:39:06.460Z,100993.63
2023-04-16T19:41:34.199Z,100996.34
2023-04-16T19:44:02.066Z,100998.09
2023-04-16T19:46:32.542Z,100997.16
2023-04-16T19:49:00.297Z,100996.34
2023-04-16T19:51:28.215Z,101000.81
2023-04-16T19:53:56.458Z,100994.66
2023-04-16T19:56:24.132Z,101002.56
2023-04-16T19:58:51.842Z,100998.19
2023-04-16T20:01:19.675Z,100997.41
2023-04-16T20:03:47.461Z,100998.03
2023-04-16T20:06:17.380Z,101008.66
2023-04-16T20:08:45.329Z,101002.56
2023-04-16T20:11:12.980Z,100997.25
2023-04-16T20:13:40.730Z,101004.41
2023-04-16T20:16:09.400Z,100996.56
2023-04-16T20:18:41.249Z,101005.41
2023-04-16T20:21:10.447Z,100996.69
2023-04-16T20:23:38.258Z,101001.03
2023-04-16T20:26:06.891Z,101004.59
2023-04-16T20:28:34.616Z,101001.13
2023-04-16T20:31:05.258Z,100989.81
2023-04-16T20:33:33.029Z,100994.22
2023-04-16T20:36:00.758Z,100995.06
2023-04-16T20:38:32.190Z,100993.34
2023-04-16T20:41:09.986Z,100993.22
2023-04-16T20:43:38.837Z,100996.50
2023-04-16T20:46:08.179Z,100987.50
2023-04-16T20:48:36.258Z,100991.88
2023-04-16T20:51:06.078Z,100989.28
2023-04-16T20:53:36.963Z,100985.88
2023-04-16T20:56:05.182Z,100993.84
2023-04-16T20:58:32.986Z,100991.09
2023-04-16T21:01:01.030Z,100984.94
2023-04-16T21:03:29.059Z,100985.81
2023-04-16T21:05:56.865Z,100985.66
2023-04-16T21:08:24.911Z,100976.81
2023-04-16T21:10:52.670Z,100978.59
2023-04-16T21:13:21.601Z,100985.66
2023-04-16T21:15:49.461Z,100984.78
2023-04-16T21:18:18.525Z,100975.91
2023-04-16T21:20:46.668Z,100975.91
2023-04-16T21:23:14.430Z,100966.25
2023-04-16T21:25:42.165Z,100975.00
2023-04-16T21:28:09.921Z,100978.56
2023-04-16T21:30:38.293Z,100975.06
2023-04-16T21:33:06.605Z,100983.94
2023-04-16T21:35:34.930Z,100972.53
2023-04-16T21:38:02.612Z,100984.78
2023-04-16T21:40:30.364Z,100982.13
2023-04-16T21:42:58.140Z,100982.97
2023-04-16T21:45:25.856Z,100988.31
2023-04-16T21:47:53.604Z,100982.13
2023-04-16T21:50:21.418Z,100977.56
2023-04-16T21:52:52.502Z,100970.75
2023-04-16T21:55:20.735Z,100980.34
2023-04-16T21:57:48.549Z,100964.38
2023-04-16T22:00:18.164Z,100971.47
2023-04-16T22:02:46.009Z,100976.00
2023-04-16T22:05:14.046Z,100968.09
2023-04-16T22:07:43.282Z,100981.25
2023-04-16T22:10:13.582Z,100981.25
2023-04-16T22:12:45.629Z,100976.69
2023-04-16T22:15:15.776Z,100976.75
2023-04-16T22:17:43.994Z,100983.84
2023-04-16T22:20:13.101Z,100977.75
2023-04-16T22:22:42.326Z,100974.09
2023-04-16T22:25:11.296Z,100979.47
2023-04-16T22:27:39.069Z,100983.84
2023-04-16T22:30:08.290Z,100981.19
2023-04-16T22:32:36.283Z,100971.41
2023-04-16T22:35:04.637Z,100974.03
2023-04-16T22:37:33.518Z,100970.47
2023-04-16T22:40:01.629Z,100979.28
2023-04-16T22:42:29.367Z,100972.16
2023-04-16T22:44:57.177Z,100972.22
2023-04-16T22:47:24.949Z,100973.16
2023-04-16T22:49:53.691Z,100967.03
2023-04-16T22:52:21.426Z,100973.16
2023-04-16T22:54:49.216Z,100960.03
2023-04-16T22:57:20.958Z,100972.31
2023-04-16T22:59:48.803Z,100966.19
2023-04-16T23:02:16.815Z,100961.94
2023-04-16T23:04:46.008Z,100967.91
2023-04-16T23:07:14.753Z,100960.94
2023-04-16T23:09:42.683Z,100976.97
2023-04-16T23:12:10.427Z,100970.88
2023-04-16T23:14:38.156Z,100970.03
2023-04-16T23:17:05.968Z,100979.59
2023-04-16T23:19:33.668Z,100976.06
2023-04-16T23:22:01.376Z,100962.81
2023-04-16T23:24:29.085Z,100971.63
2023-04-16T23:26:57.856Z,100967.34
2023-04-16T23:29:25.569Z,100956.84
2023-04-16T23:31:53.287Z,100954.28
2023-04-16T23:34:21.283Z,100974.59
2023-04-16T23:36:49.079Z,100981.81
2023-04-16T23:39:16.809Z,100969.31
2023-04-16T23:41:45.095Z,100967.75
2023-04-16T23:44:12.785Z,100973.88
2023-04-16T23:46:40.931Z,100980.19
2023-04-16T23:49:08.854Z,100973.16
2023-04-16T23:51:36.672Z,100971.53
2023-04-16T23:54:04.609Z,100973.44
2023-04-16T23:56:32.295Z,100967.22
2023-04-16T23:58:59.947Z,100969.88
